sensor_id;sensor_type;location;lat;lon;timestamp;P1;durP1;ratioP1;P2;durP2;ratioP2
51286;SDS011;37364;46.974;18.916;2023-03-26T00:00:21;0.85;;;0.70;;
51286;SDS011;37364;46.974;18.916;2023-03-26T00:02:52;1.27;;;1.02;;
51286;SDS011;37364;46.974;18.916;2023-03-26T00:05:27;1.38;;;1.00;;
51286;SDS011;37364;46.974;18.916;2023-03-26T00:07:57;2.30;;;0.70;;
51286;SDS011;37364;46.974;18.916;2023-03-26T00:10:28;3.03;;;1.10;;
51286;SDS011;37364;46.974;18.916;2023-03-26T00:12:59;1.25;;;1.15;;
51286;SDS011;37364;46.974;18.916;2023-03-26T00:15:29;4.60;;;1.10;;
51286;SDS011;37364;46.974;18.916;2023-03-26T00:18:00;1.30;;;1.20;;
51286;SDS011;37364;46.974;18.916;2023-03-26T00:20:34;1.10;;;1.08;;
51286;SDS011;37364;46.974;18.916;2023-03-26T00:23:04;1.58;;;1.33;;
51286;SDS011;37364;46.974;18.916;2023-03-26T00:25:36;1.17;;;1.08;;
51286;SDS011;37364;46.974;18.916;2023-03-26T00:28:09;0.80;;;0.80;;
51286;SDS011;37364;46.974;18.916;2023-03-26T00:30:39;1.40;;;0.95;;
51286;SDS011;37364;46.974;18.916;2023-03-26T00:33:10;1.58;;;1.17;;
51286;SDS011;37364;46.974;18.916;2023-03-26T00:35:45;1.25;;;1.15;;
51286;SDS011;37364;46.974;18.916;2023-03-26T00:38:21;1.30;;;1.30;;
51286;SDS011;37364;46.974;18.916;2023-03-26T00:40:52;1.90;;;1.25;;
51286;SDS011;37364;46.974;18.916;2023-03-26T00:43:24;4.82;;;1.60;;
51286;SDS011;37364;46.974;18.916;2023-03-26T00:45:58;3.92;;;1.85;;
51286;SDS011;37364;46.974;18.916;2023-03-26T00:48:29;1.52;;;1.42;;
51286;SDS011;37364;46.974;18.916;2023-03-26T00:51:14;1.10;;;1.10;;
51286;SDS011;37364;46.974;18.916;2023-03-26T00:53:46;3.30;;;1.58;;
51286;SDS011;37364;46.974;18.916;2023-03-26T00:56:18;1.80;;;1.70;;
51286;SDS011;37364;46.974;18.916;2023-03-26T00:58:48;1.65;;;1.55;;
51286;SDS011;37364;46.974;18.916;2023-03-26T01:01:20;3.78;;;1.20;;
51286;SDS011;37364;46.974;18.916;2023-03-26T01:03:56;2.58;;;1.52;;
51286;SDS011;37364;46.974;18.916;2023-03-26T01:06:37;1.70;;;1.40;;
51286;SDS011;37364;46.974;18.916;2023-03-26T01:09:12;4.05;;;1.75;;
51286;SDS011;37364;46.974;18.916;2023-03-26T01:11:48;3.40;;;2.08;;
51286;SDS011;37364;46.974;18.916;2023-03-26T01:14:24;3.25;;;1.58;;
51286;SDS011;37364;46.974;18.916;2023-03-26T01:16:59;1.92;;;1.73;;
51286;SDS011;37364;46.974;18.916;2023-03-26T01:19:35;2.75;;;1.95;;
51286;SDS011;37364;46.974;18.916;2023-03-26T01:22:18;2.08;;;1.58;;
51286;SDS011;37364;46.974;18.916;2023-03-26T01:24:53;4.80;;;1.60;;
51286;SDS011;37364;46.974;18.916;2023-03-26T01:27:30;8.00;;;1.60;;
51286;SDS011;37364;46.974;18.916;2023-03-26T01:30:09;3.25;;;2.00;;
51286;SDS011;37364;46.974;18.916;2023-03-26T01:32:47;1.77;;;1.67;;
51286;SDS011;37364;46.974;18.916;2023-03-26T01:35:27;4.82;;;1.48;;
51286;SDS011;37364;46.974;18.916;2023-03-26T01:38:11;7.28;;;1.60;;
51286;SDS011;37364;46.974;18.916;2023-03-26T01:40:56;1.42;;;1.33;;
51286;SDS011;37364;46.974;18.916;2023-03-26T01:43:34;2.70;;;1.70;;
51286;SDS011;37364;46.974;18.916;2023-03-26T01:46:12;12.35;;;1.33;;
51286;SDS011;37364;46.974;18.916;2023-03-26T01:48:45;1.20;;;1.10;;
51286;SDS011;37364;46.974;18.916;2023-03-26T01:51:27;1.30;;;1.20;;
51286;SDS011;37364;46.974;18.916;2023-03-26T01:53:59;1.77;;;1.20;;
51286;SDS011;37364;46.974;18.916;2023-03-26T01:56:47;1.75;;;1.63;;
51286;SDS011;37364;46.974;18.916;2023-03-26T01:59:39;3.40;;;1.90;;
51286;SDS011;37364;46.974;18.916;2023-03-26T02:02:27;2.47;;;1.83;;
51286;SDS011;37364;46.974;18.916;2023-03-26T02:05:10;1.63;;;1.55;;
51286;SDS011;37364;46.974;18.916;2023-03-26T02:07:50;3.33;;;1.50;;
51286;SDS011;37364;46.974;18.916;2023-03-26T02:10:32;1.55;;;1.40;;
51286;SDS011;37364;46.974;18.916;2023-03-26T02:13:10;7.55;;;1.58;;
51286;SDS011;37364;46.974;18.916;2023-03-26T02:15:52;2.38;;;1.20;;
51286;SDS011;37364;46.974;18.916;2023-03-26T02:18:24;2.05;;;1.55;;
51286;SDS011;37364;46.974;18.916;2023-03-26T02:21:03;1.48;;;1.13;;
51286;SDS011;37364;46.974;18.916;2023-03-26T02:23:39;1.17;;;1.17;;
51286;SDS011;37364;46.974;18.916;2023-03-26T02:26:13;1.48;;;1.38;;
51286;SDS011;37364;46.974;18.916;2023-03-26T02:28:57;2.20;;;1.20;;
51286;SDS011;37364;46.974;18.916;2023-03-26T02:31:28;1.90;;;1.58;;
51286;SDS011;37364;46.974;18.916;2023-03-26T02:33:58;1.40;;;1.30;;
51286;SDS011;37364;46.974;18.916;2023-03-26T02:36:32;1.58;;;1.10;;
51286;SDS011;37364;46.974;18.916;2023-03-26T02:39:03;6.90;;;1.58;;
51286;SDS011;37364;46.974;18.916;2023-03-26T02:41:36;1.60;;;1.08;;
51286;SDS011;37364;46.974;18.916;2023-03-26T02:44:12;3.67;;;1.48;;
51286;SDS011;37364;46.974;18.916;2023-03-26T02:46:57;1.88;;;1.10;;
51286;SDS011;37364;46.974;18.916;2023-03-26T02:49:39;1.77;;;1.20;;
51286;SDS011;37364;46.974;18.916;2023-03-26T02:52:18;2.10;;;1.50;;
51286;SDS011;37364;46.974;18.916;2023-03-26T02:54:50;1.58;;;1.48;;
51286;SDS011;37364;46.974;18.916;2023-03-26T02:57:22;1.35;;;1.13;;
51286;SDS011;37364;46.974;18.916;2023-03-26T03:00:31;2.33;;;1.30;;
51286;SDS011;37364;46.974;18.916;2023-03-26T03:03:22;3.25;;;1.50;;
51286;SDS011;37364;46.974;18.916;2023-03-26T03:06:22;3.78;;;1.60;;
51286;SDS011;37364;46.974;18.916;2023-03-26T03:08:56;2.60;;;1.50;;
51286;SDS011;37364;46.974;18.916;2023-03-26T03:11:48;4.82;;;1.30;;
51286;SDS011;37364;46.974;18.916;2023-03-26T03:14:19;1.45;;;1.33;;
51286;SDS011;37364;46.974;18.916;2023-03-26T03:16:52;1.25;;;1.17;;
51286;SDS011;37364;46.974;18.916;2023-03-26T03:19:23;2.53;;;1.30;;
51286;SDS011;37364;46.974;18.916;2023-03-26T03:21:54;4.03;;;1.52;;
51286;SDS011;37364;46.974;18.916;2023-03-26T03:24:24;2.03;;;1.60;;
51286;SDS011;37364;46.974;18.916;2023-03-26T03:26:55;2.05;;;1.67;;
51286;SDS011;37364;46.974;18.916;2023-03-26T03:29:45;1.65;;;1.55;;
51286;SDS011;37364;46.974;18.916;2023-03-26T03:32:53;1.60;;;1.50;;
51286;SDS011;37364;46.974;18.916;2023-03-26T03:37:57;3.75;;;1.92;;
51286;SDS011;37364;46.974;18.916;2023-03-26T03:40:34;1.77;;;1.52;;
51286;SDS011;37364;46.974;18.916;2023-03-26T03:43:05;2.25;;;1.70;;
51286;SDS011;37364;46.974;18.916;2023-03-26T03:45:43;2.60;;;1.50;;
51286;SDS011;37364;46.974;18.916;2023-03-26T03:48:38;2.47;;;1.77;;
51286;SDS011;37364;46.974;18.916;2023-03-26T03:51:16;1.77;;;1.67;;
51286;SDS011;37364;46.974;18.916;2023-03-26T03:53:58;2.67;;;2.30;;
51286;SDS011;37364;46.974;18.916;2023-03-26T03:56:49;2.80;;;1.85;;
51286;SDS011;37364;46.974;18.916;2023-03-26T03:59:34;2.17;;;1.77;;
51286;SDS011;37364;46.974;18.916;2023-03-26T04:02:15;2.08;;;1.88;;
51286;SDS011;37364;46.974;18.916;2023-03-26T04:04:59;1.88;;;1.77;;
51286;SDS011;37364;46.974;18.916;2023-03-26T04:07:31;2.92;;;2.03;;
51286;SDS011;37364;46.974;18.916;2023-03-26T04:10:21;3.22;;;1.80;;
51286;SDS011;37364;46.974;18.916;2023-03-26T04:13:10;3.47;;;2.17;;
51286;SDS011;37364;46.974;18.916;2023-03-26T04:16:07;2.67;;;2.00;;
51286;SDS011;37364;46.974;18.916;2023-03-26T04:18:38;3.72;;;2.20;;
51286;SDS011;37364;46.974;18.916;2023-03-26T04:21:15;2.22;;;1.98;;
51286;SDS011;37364;46.974;18.916;2023-03-26T04:23:46;3.00;;;2.10;;
51286;SDS011;37364;46.974;18.916;2023-03-26T04:26:39;1.90;;;1.80;;
51286;SDS011;37364;46.974;18.916;2023-03-26T04:29:14;7.00;;;2.17;;
51286;SDS011;37364;46.974;18.916;2023-03-26T04:31:51;2.85;;;2.10;;
51286;SDS011;37364;46.974;18.916;2023-03-26T04:34:25;3.60;;;2.13;;
51286;SDS011;37364;46.974;18.916;2023-03-26T04:37:23;5.70;;;2.50;;
51286;SDS011;37364;46.974;18.916;2023-03-26T04:40:22;3.00;;;2.70;;
51286;SDS011;37364;46.974;18.916;2023-03-26T04:43:01;3.45;;;2.55;;
51286;SDS011;37364;46.974;18.916;2023-03-26T04:45:50;2.60;;;2.40;;
51286;SDS011;37364;46.974;18.916;2023-03-26T04:48:24;3.67;;;2.40;;
51286;SDS011;37364;46.974;18.916;2023-03-26T04:50:56;5.30;;;3.08;;
51286;SDS011;37364;46.974;18.916;2023-03-26T04:53:30;3.95;;;2.90;;
51286;SDS011;37364;46.974;18.916;2023-03-26T04:56:25;5.45;;;2.90;;
51286;SDS011;37364;46.974;18.916;2023-03-26T04:59:30;4.47;;;2.95;;
51286;SDS011;37364;46.974;18.916;2023-03-26T05:02:06;3.45;;;3.15;;
51286;SDS011;37364;46.974;18.916;2023-03-26T05:04:46;3.47;;;3.03;;
51286;SDS011;37364;46.974;18.916;2023-03-26T05:07:18;5.05;;;3.35;;
51286;SDS011;37364;46.974;18.916;2023-03-26T05:09:57;5.57;;;2.85;;
51286;SDS011;37364;46.974;18.916;2023-03-26T05:12:45;5.70;;;3.58;;
51286;SDS011;37364;46.974;18.916;2023-03-26T05:15:28;4.35;;;3.95;;
51286;SDS011;37364;46.974;18.916;2023-03-26T05:18:21;6.90;;;4.30;;
51286;SDS011;37364;46.974;18.916;2023-03-26T05:20:52;8.30;;;4.70;;
51286;SDS011;37364;46.974;18.916;2023-03-26T05:23:24;5.53;;;5.00;;
51286;SDS011;37364;46.974;18.916;2023-03-26T05:26:14;8.93;;;5.57;;
51286;SDS011;37364;46.974;18.916;2023-03-26T05:28:44;7.17;;;5.90;;
51286;SDS011;37364;46.974;18.916;2023-03-26T05:31:41;8.20;;;6.32;;
51286;SDS011;37364;46.974;18.916;2023-03-26T05:34:11;6.85;;;5.63;;
51286;SDS011;37364;46.974;18.916;2023-03-26T05:36:41;12.10;;;7.07;;
51286;SDS011;37364;46.974;18.916;2023-03-26T05:39:30;9.88;;;6.80;;
51286;SDS011;37364;46.974;18.916;2023-03-26T05:42:24;8.65;;;6.35;;
51286;SDS011;37364;46.974;18.916;2023-03-26T05:45:10;8.63;;;7.00;;
51286;SDS011;37364;46.974;18.916;2023-03-26T05:47:42;7.78;;;6.68;;
51286;SDS011;37364;46.974;18.916;2023-03-26T05:50:13;12.40;;;7.43;;
51286;SDS011;37364;46.974;18.916;2023-03-26T05:52:44;13.57;;;8.18;;
51286;SDS011;37364;46.974;18.916;2023-03-26T05:55:33;10.98;;;7.60;;
51286;SDS011;37364;46.974;18.916;2023-03-26T05:58:24;9.88;;;7.90;;
51286;SDS011;37364;46.974;18.916;2023-03-26T06:01:15;13.57;;;7.83;;
51286;SDS011;37364;46.974;18.916;2023-03-26T06:04:08;8.52;;;7.25;;
51286;SDS011;37364;46.974;18.916;2023-03-26T06:07:02;9.55;;;7.53;;
51286;SDS011;37364;46.974;18.916;2023-03-26T06:09:36;9.13;;;7.72;;
51286;SDS011;37364;46.974;18.916;2023-03-26T06:12:08;8.90;;;8.00;;
51286;SDS011;37364;46.974;18.916;2023-03-26T06:14:42;9.27;;;7.97;;
51286;SDS011;37364;46.974;18.916;2023-03-26T06:17:18;9.18;;;7.47;;
51286;SDS011;37364;46.974;18.916;2023-03-26T06:20:09;8.32;;;7.05;;
51286;SDS011;37364;46.974;18.916;2023-03-26T06:22:44;15.65;;;8.68;;
51286;SDS011;37364;46.974;18.916;2023-03-26T06:25:19;8.27;;;7.47;;
51286;SDS011;37364;46.974;18.916;2023-03-26T06:27:58;9.38;;;7.82;;
51286;SDS011;37364;46.974;18.916;2023-03-26T06:30:50;9.98;;;7.72;;
51286;SDS011;37364;46.974;18.916;2023-03-26T06:33:30;12.05;;;8.82;;
51286;SDS011;37364;46.974;18.916;2023-03-26T06:36:00;8.73;;;7.93;;
51286;SDS011;37364;46.974;18.916;2023-03-26T06:38:31;11.55;;;7.80;;
51286;SDS011;37364;46.974;18.916;2023-03-26T06:41:04;9.77;;;7.18;;
51286;SDS011;37364;46.974;18.916;2023-03-26T06:43:48;8.85;;;7.75;;
51286;SDS011;37364;46.974;18.916;2023-03-26T06:46:39;12.38;;;6.97;;
51286;SDS011;37364;46.974;18.916;2023-03-26T06:49:28;7.18;;;5.80;;
51286;SDS011;37364;46.974;18.916;2023-03-26T06:52:29;12.80;;;6.55;;
51286;SDS011;37364;46.974;18.916;2023-03-26T06:55:20;7.85;;;7.05;;
51286;SDS011;37364;46.974;18.916;2023-03-26T06:58:05;12.45;;;5.90;;
51286;SDS011;37364;46.974;18.916;2023-03-26T07:00:54;7.78;;;6.18;;
51286;SDS011;37364;46.974;18.916;2023-03-26T07:03:47;6.07;;;5.53;;
51286;SDS011;37364;46.974;18.916;2023-03-26T07:06:35;7.78;;;5.57;;
51286;SDS011;37364;46.974;18.916;2023-03-26T07:09:24;5.60;;;5.10;;
51286;SDS011;37364;46.974;18.916;2023-03-26T07:11:58;10.65;;;5.65;;
51286;SDS011;37364;46.974;18.916;2023-03-26T07:14:49;5.80;;;5.10;;
51286;SDS011;37364;46.974;18.916;2023-03-26T07:17:25;9.80;;;5.20;;
51286;SDS011;37364;46.974;18.916;2023-03-26T07:20:06;6.05;;;5.35;;
51286;SDS011;37364;46.974;18.916;2023-03-26T07:22:38;6.72;;;5.43;;
51286;SDS011;37364;46.974;18.916;2023-03-26T07:25:14;5.97;;;5.10;;
51286;SDS011;37364;46.974;18.916;2023-03-26T07:27:59;8.73;;;6.90;;
51286;SDS011;37364;46.974;18.916;2023-03-26T07:31:14;7.07;;;5.85;;
51286;SDS011;37364;46.974;18.916;2023-03-26T07:34:32;6.88;;;5.13;;
51286;SDS011;37364;46.974;18.916;2023-03-26T07:37:34;4.78;;;4.38;;
51286;SDS011;37364;46.974;18.916;2023-03-26T07:40:43;11.20;;;4.72;;
51286;SDS011;37364;46.974;18.916;2023-03-26T07:43:40;5.93;;;4.22;;
51286;SDS011;37364;46.974;18.916;2023-03-26T07:46:37;5.07;;;4.55;;
51286;SDS011;37364;46.974;18.916;2023-03-26T07:49:31;6.40;;;4.63;;
51286;SDS011;37364;46.974;18.916;2023-03-26T07:52:12;4.45;;;3.88;;
51286;SDS011;37364;46.974;18.916;2023-03-26T07:55:10;5.82;;;4.40;;
51286;SDS011;37364;46.974;18.916;2023-03-26T07:58:03;6.05;;;5.43;;
51286;SDS011;37364;46.974;18.916;2023-03-26T08:01:03;9.27;;;4.63;;
51286;SDS011;37364;46.974;18.916;2023-03-26T08:03:44;4.93;;;4.53;;
51286;SDS011;37364;46.974;18.916;2023-03-26T08:06:58;4.45;;;4.03;;
51286;SDS011;37364;46.974;18.916;2023-03-26T08:10:02;4.60;;;3.80;;
51286;SDS011;37364;46.974;18.916;2023-03-26T08:12:57;5.80;;;4.28;;
51286;SDS011;37364;46.974;18.916;2023-03-26T08:15:37;12.40;;;4.15;;
51286;SDS011;37364;46.974;18.916;2023-03-26T08:18:20;3.50;;;3.20;;
51286;SDS011;37364;46.974;18.916;2023-03-26T08:20:57;3.70;;;3.40;;
51286;SDS011;37364;46.974;18.916;2023-03-26T08:23:33;5.75;;;3.85;;
51286;SDS011;37364;46.974;18.916;2023-03-26T08:26:18;3.38;;;3.08;;
51286;SDS011;37364;46.974;18.916;2023-03-26T08:29:00;3.83;;;3.53;;
51286;SDS011;37364;46.974;18.916;2023-03-26T08:31:39;3.10;;;2.55;;
51286;SDS011;37364;46.974;18.916;2023-03-26T08:34:12;4.45;;;3.22;;
51286;SDS011;37364;46.974;18.916;2023-03-26T08:36:42;3.45;;;3.15;;
51286;SDS011;37364;46.974;18.916;2023-03-26T08:39:13;2.90;;;2.53;;
51286;SDS011;37364;46.974;18.916;2023-03-26T08:41:50;2.70;;;2.47;;
51286;SDS011;37364;46.974;18.916;2023-03-26T08:47:56;5.13;;;2.67;;
51286;SDS011;37364;46.974;18.916;2023-03-26T08:50:58;11.35;;;2.60;;
51286;SDS011;37364;46.974;18.916;2023-03-26T08:56:43;7.93;;;3.00;;
51286;SDS011;37364;46.974;18.916;2023-03-26T08:59:37;2.50;;;2.30;;
51286;SDS011;37364;46.974;18.916;2023-03-26T09:05:57;3.20;;;2.67;;
51286;SDS011;37364;46.974;18.916;2023-03-26T09:09:02;3.95;;;3.30;;
51286;SDS011;37364;46.974;18.916;2023-03-26T09:15:15;2.33;;;2.20;;
51286;SDS011;37364;46.974;18.916;2023-03-26T09:21:34;4.53;;;2.80;;
51286;SDS011;37364;46.974;18.916;2023-03-26T09:27:35;3.97;;;2.47;;
51286;SDS011;37364;46.974;18.916;2023-03-26T09:33:21;3.42;;;2.10;;
51286;SDS011;37364;46.974;18.916;2023-03-26T09:36:19;1.98;;;1.80;;
51286;SDS011;37364;46.974;18.916;2023-03-26T09:39:01;2.20;;;2.00;;
51286;SDS011;37364;46.974;18.916;2023-03-26T09:41:40;2.15;;;1.58;;
51286;SDS011;37364;46.974;18.916;2023-03-26T09:44:19;1.77;;;1.67;;
51286;SDS011;37364;46.974;18.916;2023-03-26T09:53:07;3.15;;;1.73;;
51286;SDS011;37364;46.974;18.916;2023-03-26T09:56:04;3.40;;;1.92;;
51286;SDS011;37364;46.974;18.916;2023-03-26T09:58:53;2.78;;;2.30;;
51286;SDS011;37364;46.974;18.916;2023-03-26T10:01:36;5.65;;;2.10;;
51286;SDS011;37364;46.974;18.916;2023-03-26T10:04:29;2.58;;;1.98;;
51286;SDS011;37364;46.974;18.916;2023-03-26T10:07:13;2.47;;;1.85;;
51286;SDS011;37364;46.974;18.916;2023-03-26T10:09:58;4.65;;;2.50;;
51286;SDS011;37364;46.974;18.916;2023-03-26T10:12:36;2.50;;;2.30;;
51286;SDS011;37364;46.974;18.916;2023-03-26T10:15:20;15.93;;;2.60;;
51286;SDS011;37364;46.974;18.916;2023-03-26T10:18:08;3.03;;;2.00;;
51286;SDS011;37364;46.974;18.916;2023-03-26T10:20:56;2.28;;;2.03;;
51286;SDS011;37364;46.974;18.916;2023-03-26T10:23:34;1.80;;;1.55;;
51286;SDS011;37364;46.974;18.916;2023-03-26T10:32:34;4.45;;;2.03;;
51286;SDS011;37364;46.974;18.916;2023-03-26T10:35:17;1.83;;;1.73;;
51286;SDS011;37364;46.974;18.916;2023-03-26T10:37:57;3.05;;;2.35;;
51286;SDS011;37364;46.974;18.916;2023-03-26T10:40:38;6.23;;;2.00;;
51286;SDS011;37364;46.974;18.916;2023-03-26T10:43:25;2.55;;;1.92;;
51286;SDS011;37364;46.974;18.916;2023-03-26T10:49:31;3.17;;;1.95;;
51286;SDS011;37364;46.974;18.916;2023-03-26T10:52:11;2.83;;;1.80;;
51286;SDS011;37364;46.974;18.916;2023-03-26T10:54:47;0.80;;;0.80;;
51286;SDS011;37364;46.974;18.916;2023-03-26T10:57:25;2.65;;;1.15;;
51286;SDS011;37364;46.974;18.916;2023-03-26T11:00:11;1.02;;;0.70;;
51286;SDS011;37364;46.974;18.916;2023-03-26T11:02:50;1.33;;;1.00;;
51286;SDS011;37364;46.974;18.916;2023-03-26T11:05:45;1.25;;;1.15;;
51286;SDS011;37364;46.974;18.916;2023-03-26T11:08:20;1.00;;;0.90;;
51286;SDS011;37364;46.974;18.916;2023-03-26T11:11:00;0.95;;;0.82;;
51286;SDS011;37364;46.974;18.916;2023-03-26T11:13:42;3.25;;;1.13;;
51286;SDS011;37364;46.974;18.916;2023-03-26T11:16:21;1.17;;;0.82;;
51286;SDS011;37364;46.974;18.916;2023-03-26T11:19:03;0.65;;;0.65;;
51286;SDS011;37364;46.974;18.916;2023-03-26T11:21:41;1.45;;;1.33;;
51286;SDS011;37364;46.974;18.916;2023-03-26T11:24:29;3.00;;;1.48;;
51286;SDS011;37364;46.974;18.916;2023-03-26T11:27:26;0.47;;;0.47;;
51286;SDS011;37364;46.974;18.916;2023-03-26T11:30:10;1.38;;;0.73;;
51286;SDS011;37364;46.974;18.916;2023-03-26T11:32:49;1.33;;;0.63;;
51286;SDS011;37364;46.974;18.916;2023-03-26T11:35:25;3.40;;;0.98;;
51286;SDS011;37364;46.974;18.916;2023-03-26T11:38:11;9.18;;;0.88;;
51286;SDS011;37364;46.974;18.916;2023-03-26T11:40:46;1.35;;;0.63;;
51286;SDS011;37364;46.974;18.916;2023-03-26T11:43:38;6.95;;;0.85;;
51286;SDS011;37364;46.974;18.916;2023-03-26T11:46:09;0.60;;;0.40;;
51286;SDS011;37364;46.974;18.916;2023-03-26T11:48:44;3.67;;;0.85;;
51286;SDS011;37364;46.974;18.916;2023-03-26T11:51:21;0.90;;;0.80;;
51286;SDS011;37364;46.974;18.916;2023-03-26T11:53:55;1.08;;;0.70;;
51286;SDS011;37364;46.974;18.916;2023-03-26T11:56:26;0.57;;;0.52;;
51286;SDS011;37364;46.974;18.916;2023-03-26T11:59:02;1.95;;;1.10;;
51286;SDS011;37364;46.974;18.916;2023-03-26T12:01:42;0.60;;;0.55;;
51286;SDS011;37364;46.974;18.916;2023-03-26T12:04:17;1.25;;;0.80;;
51286;SDS011;37364;46.974;18.916;2023-03-26T12:06:53;0.53;;;0.53;;
51286;SDS011;37364;46.974;18.916;2023-03-26T12:09:25;1.17;;;0.63;;
51286;SDS011;37364;46.974;18.916;2023-03-26T12:11:59;0.85;;;0.60;;
51286;SDS011;37364;46.974;18.916;2023-03-26T12:14:33;1.08;;;0.50;;
51286;SDS011;37364;46.974;18.916;2023-03-26T12:17:05;1.75;;;0.90;;
51286;SDS011;37364;46.974;18.916;2023-03-26T12:19:38;2.00;;;0.55;;
51286;SDS011;37364;46.974;18.916;2023-03-26T12:25:07;2.05;;;0.90;;
51286;SDS011;37364;46.974;18.916;2023-03-26T12:27:44;0.80;;;0.73;;
51286;SDS011;37364;46.974;18.916;2023-03-26T12:30:19;2.85;;;0.55;;
51286;SDS011;37364;46.974;18.916;2023-03-26T12:32:51;1.65;;;0.68;;
51286;SDS011;37364;46.974;18.916;2023-03-26T12:35:27;1.75;;;0.60;;
51286;SDS011;37364;46.974;18.916;2023-03-26T12:38:18;2.85;;;0.80;;
51286;SDS011;37364;46.974;18.916;2023-03-26T12:41:04;2.03;;;0.90;;
51286;SDS011;37364;46.974;18.916;2023-03-26T12:43:56;4.65;;;0.80;;
51286;SDS011;37364;46.974;18.916;2023-03-26T12:47:13;4.30;;;0.93;;
51286;SDS011;37364;46.974;18.916;2023-03-26T12:50:10;1.30;;;0.82;;
51286;SDS011;37364;46.974;18.916;2023-03-26T12:52:55;0.50;;;0.50;;
51286;SDS011;37364;46.974;18.916;2023-03-26T12:55:44;1.42;;;0.50;;
51286;SDS011;37364;46.974;18.916;2023-03-26T12:58:31;0.85;;;0.70;;
51286;SDS011;37364;46.974;18.916;2023-03-26T13:01:20;1.13;;;0.60;;
51286;SDS011;37364;46.974;18.916;2023-03-26T13:04:06;1.08;;;0.73;;
51286;SDS011;37364;46.974;18.916;2023-03-26T13:06:53;1.92;;;1.20;;
51286;SDS011;37364;46.974;18.916;2023-03-26T13:12:42;0.47;;;0.47;;
51286;SDS011;37364;46.974;18.916;2023-03-26T13:15:23;0.50;;;0.50;;
51286;SDS011;37364;46.974;18.916;2023-03-26T13:18:03;5.35;;;1.10;;
51286;SDS011;37364;46.974;18.916;2023-03-26T13:20:48;0.55;;;0.52;;
51286;SDS011;37364;46.974;18.916;2023-03-26T13:23:23;0.52;;;0.52;;
51286;SDS011;37364;46.974;18.916;2023-03-26T13:26:02;4.47;;;0.80;;
51286;SDS011;37364;46.974;18.916;2023-03-26T13:28:42;0.75;;;0.52;;
51286;SDS011;37364;46.974;18.916;2023-03-26T13:31:19;0.75;;;0.47;;
51286;SDS011;37364;46.974;18.916;2023-03-26T13:33:57;3.65;;;0.60;;
51286;SDS011;37364;46.974;18.916;2023-03-26T13:36:34;6.43;;;0.90;;
51286;SDS011;37364;46.974;18.916;2023-03-26T13:39:19;1.27;;;0.50;;
51286;SDS011;37364;46.974;18.916;2023-03-26T13:45:13;0.93;;;0.93;;
51286;SDS011;37364;46.974;18.916;2023-03-26T13:47:56;0.30;;;0.30;;
51286;SDS011;37364;46.974;18.916;2023-03-26T13:50:29;3.00;;;0.52;;
51286;SDS011;37364;46.974;18.916;2023-03-26T13:53:10;1.13;;;0.32;;
51286;SDS011;37364;46.974;18.916;2023-03-26T13:55:47;0.50;;;0.50;;
51286;SDS011;37364;46.974;18.916;2023-03-26T13:58:30;6.43;;;0.57;;
51286;SDS011;37364;46.974;18.916;2023-03-26T14:01:09;2.35;;;0.60;;
51286;SDS011;37364;46.974;18.916;2023-03-26T14:03:48;0.60;;;0.60;;
51286;SDS011;37364;46.974;18.916;2023-03-26T14:06:28;2.33;;;0.60;;
51286;SDS011;37364;46.974;18.916;2023-03-26T14:09:10;2.75;;;0.57;;
51286;SDS011;37364;46.974;18.916;2023-03-26T14:11:52;0.68;;;0.50;;
51286;SDS011;37364;46.974;18.916;2023-03-26T14:14:48;1.15;;;0.90;;
51286;SDS011;37364;46.974;18.916;2023-03-26T14:17:27;1.33;;;0.88;;
51286;SDS011;37364;46.974;18.916;2023-03-26T14:23:26;2.45;;;0.93;;
51286;SDS011;37364;46.974;18.916;2023-03-26T14:26:13;3.60;;;0.50;;
51286;SDS011;37364;46.974;18.916;2023-03-26T14:28:57;1.67;;;0.85;;
51286;SDS011;37364;46.974;18.916;2023-03-26T14:32:17;3.70;;;0.70;;
51286;SDS011;37364;46.974;18.916;2023-03-26T14:35:11;9.30;;;1.00;;
51286;SDS011;37364;46.974;18.916;2023-03-26T14:41:15;1.02;;;0.68;;
51286;SDS011;37364;46.974;18.916;2023-03-26T14:43:58;0.98;;;0.70;;
51286;SDS011;37364;46.974;18.916;2023-03-26T14:46:55;2.50;;;0.77;;
51286;SDS011;37364;46.974;18.916;2023-03-26T14:52:51;12.50;;;1.05;;
51286;SDS011;37364;46.974;18.916;2023-03-26T15:04:54;3.30;;;0.85;;
51286;SDS011;37364;46.974;18.916;2023-03-26T15:08:03;2.13;;;0.90;;
51286;SDS011;37364;46.974;18.916;2023-03-26T15:11:15;0.75;;;0.65;;
51286;SDS011;37364;46.974;18.916;2023-03-26T15:14:00;6.40;;;0.98;;
51286;SDS011;37364;46.974;18.916;2023-03-26T15:26:11;2.35;;;0.98;;
51286;SDS011;37364;46.974;18.916;2023-03-26T15:32:30;3.45;;;1.30;;
51286;SDS011;37364;46.974;18.916;2023-03-26T15:41:23;7.00;;;0.80;;
51286;SDS011;37364;46.974;18.916;2023-03-26T15:44:05;1.10;;;1.00;;
51286;SDS011;37364;46.974;18.916;2023-03-26T15:46:58;5.43;;;0.80;;
51286;SDS011;37364;46.974;18.916;2023-03-26T15:52:22;0.55;;;0.55;;
51286;SDS011;37364;46.974;18.916;2023-03-26T15:54:58;1.02;;;0.77;;
51286;SDS011;37364;46.974;18.916;2023-03-26T15:57:38;0.85;;;0.68;;
51286;SDS011;37364;46.974;18.916;2023-03-26T16:00:20;1.65;;;0.88;;
51286;SDS011;37364;46.974;18.916;2023-03-26T16:03:02;9.02;;;1.17;;
51286;SDS011;37364;46.974;18.916;2023-03-26T16:05:53;7.07;;;1.08;;
51286;SDS011;37364;46.974;18.916;2023-03-26T16:08:40;2.75;;;1.30;;
51286;SDS011;37364;46.974;18.916;2023-03-26T16:14:20;1.02;;;0.90;;
51286;SDS011;37364;46.974;18.916;2023-03-26T16:16:52;2.05;;;1.30;;
51286;SDS011;37364;46.974;18.916;2023-03-26T16:19:30;3.83;;;1.42;;
51286;SDS011;37364;46.974;18.916;2023-03-26T16:22:21;13.55;;;1.50;;
51286;SDS011;37364;46.974;18.916;2023-03-26T16:25:16;3.15;;;1.40;;
51286;SDS011;37364;46.974;18.916;2023-03-26T16:28:05;2.33;;;1.23;;
51286;SDS011;37364;46.974;18.916;2023-03-26T16:43:17;4.47;;;1.45;;
51286;SDS011;37364;46.974;18.916;2023-03-26T16:45:57;9.52;;;2.03;;
51286;SDS011;37364;46.974;18.916;2023-03-26T16:48:37;1.55;;;1.40;;
51286;SDS011;37364;46.974;18.916;2023-03-26T16:51:19;3.65;;;1.42;;
51286;SDS011;37364;46.974;18.916;2023-03-26T16:53:57;2.67;;;1.45;;
51286;SDS011;37364;46.974;18.916;2023-03-26T16:56:36;3.13;;;1.48;;
51286;SDS011;37364;46.974;18.916;2023-03-26T16:59:30;2.97;;;1.40;;
51286;SDS011;37364;46.974;18.916;2023-03-26T17:02:33;4.25;;;1.45;;
51286;SDS011;37364;46.974;18.916;2023-03-26T17:05:16;5.70;;;2.00;;
51286;SDS011;37364;46.974;18.916;2023-03-26T17:07:54;2.08;;;1.35;;
51286;SDS011;37364;46.974;18.916;2023-03-26T17:10:35;4.80;;;1.45;;
51286;SDS011;37364;46.974;18.916;2023-03-26T17:13:10;2.08;;;1.67;;
51286;SDS011;37364;46.974;18.916;2023-03-26T17:15:52;3.28;;;1.95;;
51286;SDS011;37364;46.974;18.916;2023-03-26T17:18:34;4.47;;;1.57;;
51286;SDS011;37364;46.974;18.916;2023-03-26T17:21:12;3.90;;;1.67;;
51286;SDS011;37364;46.974;18.916;2023-03-26T17:23:53;1.58;;;1.42;;
51286;SDS011;37364;46.974;18.916;2023-03-26T17:26:49;4.63;;;1.95;;
51286;SDS011;37364;46.974;18.916;2023-03-26T17:29:29;2.40;;;1.85;;
51286;SDS011;37364;46.974;18.916;2023-03-26T17:32:18;1.85;;;1.73;;
51286;SDS011;37364;46.974;18.916;2023-03-26T17:34:53;1.90;;;1.52;;
51286;SDS011;37364;46.974;18.916;2023-03-26T17:37:38;2.67;;;1.33;;
51286;SDS011;37364;46.974;18.916;2023-03-26T17:40:29;4.20;;;1.55;;
51286;SDS011;37364;46.974;18.916;2023-03-26T17:46:03;2.08;;;1.70;;
51286;SDS011;37364;46.974;18.916;2023-03-26T17:48:41;2.05;;;1.52;;
51286;SDS011;37364;46.974;18.916;2023-03-26T17:51:19;2.75;;;1.83;;